createdAt,value
2022-10-15T00:00:40.233Z,99896.50
2022-10-15T00:03:07.032Z,99893.84
2022-10-15T00:05:37.022Z,99880.72
2022-10-15T00:08:04.315Z,99877.50
2022-10-15T00:10:31.048Z,99886.59
2022-10-15T00:12:57.560Z,99885.56
2022-10-15T00:15:24.049Z,99887.94
2022-10-15T00:17:50.522Z,99881.72
2022-10-15T00:20:17.658Z,99882.00
2022-10-15T00:22:44.291Z,99886.22
2022-10-15T00:25:10.877Z,99879.31
2022-10-15T00:27:37.384Z,99882.00
2022-10-15T00:30:05.236Z,99882.72
2022-10-15T00:32:32.264Z,99880.41
2022-10-15T00:34:58.731Z,99871.38
2022-10-15T00:37:25.589Z,99881.88
2022-10-15T00:39:52.117Z,99886.41
2022-10-15T00:42:18.612Z,99875.50
2022-10-15T00:44:51.791Z,99878.03
2022-10-15T00:47:25.176Z,99871.97
2022-10-15T00:50:06.080Z,99871.66
2022-10-15T00:53:02.458Z,99868.78
2022-10-15T00:55:30.808Z,99866.47
2022-10-15T00:58:02.084Z,99858.88
2022-10-15T01:00:28.605Z,99851.38
2022-10-15T01:02:56.553Z,99849.91
2022-10-15T01:05:23.690Z,99852.72
2022-10-15T01:07:50.220Z,99847.03
2022-10-15T01:10:18.608Z,99839.47
2022-10-15T01:13:03.626Z,99838.31
2022-10-15T01:15:57.444Z,99835.25
2022-10-15T01:18:29.066Z,99840.31
2022-10-15T01:21:03.012Z,99843.50
2022-10-15T01:24:00.175Z,99833.59
2022-10-15T01:27:23.665Z,99835.63
2022-10-15T01:30:11.555Z,99834.63
2022-10-15T01:32:47.902Z,99831.44
2022-10-15T01:35:29.061Z,99832.63
2022-10-15T01:38:03.300Z,99834.69
2022-10-15T01:40:49.466Z,99828.09
2022-10-15T01:43:24.690Z,99820.41
2022-10-15T01:46:17.676Z,99822.03
2022-10-15T01:49:03.942Z,99819.38
2022-10-15T01:51:31.816Z,99817.22
2022-10-15T01:54:00.388Z,99821.06
2022-10-15T01:56:28.282Z,99824.59
2022-10-15T01:58:56.274Z,99826.75
2022-10-15T02:01:23.128Z,99820.22
2022-10-15T02:03:52.171Z,99818.03
2022-10-15T02:06:28.566Z,99818.03
2022-10-15T02:09:08.110Z,99810.97
2022-10-15T02:12:01.404Z,99811.47
2022-10-15T02:14:35.194Z,99806.97
2022-10-15T02:17:11.652Z,99810.47
2022-10-15T02:19:52.528Z,99802.56
2022-10-15T02:22:25.204Z,99798.91
2022-10-15T02:25:07.362Z,99798.06
2022-10-15T02:27:35.162Z,99795.38
2022-10-15T02:30:06.598Z,99795.88
2022-10-15T02:32:33.419Z,99792.34
2022-10-15T02:35:01.655Z,99792.91
2022-10-15T02:37:29.935Z,99788.34
2022-10-15T02:39:56.611Z,99778.94
2022-10-15T02:42:24.612Z,99783.31
2022-10-15T02:44:51.330Z,99782.31
2022-10-15T02:47:17.870Z,99775.63
2022-10-15T02:49:44.431Z,99770.38
2022-10-15T02:52:10.887Z,99772.56
2022-10-15T02:54:37.388Z,99777.94
2022-10-15T02:57:03.844Z,99774.91
2022-10-15T02:59:30.409Z,99767.56
2022-10-15T03:01:58.318Z,99768.88
2022-10-15T03:04:26.315Z,99766.72
2022-10-15T03:06:52.935Z,99766.16
2022-10-15T03:09:19.698Z,99771.91
2022-10-15T03:11:46.981Z,99775.44
2022-10-15T03:14:13.581Z,99772.94
2022-10-15T03:16:40.648Z,99771.72
2022-10-15T03:19:07.137Z,99774.25
2022-10-15T03:21:33.944Z,99770.38
2022-10-15T03:24:09.427Z,99761.47
2022-10-15T03:26:36.084Z,99763.34
2022-10-15T03:29:03.057Z,99767.69
2022-10-15T03:31:52.396Z,99766.19
2022-10-15T03:34:20.539Z,99768.38
2022-10-15T03:36:47.092Z,99768.38
2022-10-15T03:39:13.844Z,99752.94
2022-10-15T03:41:40.720Z,99749.44
2022-10-15T03:44:08.071Z,99748.22
2022-10-15T03:46:37.001Z,99762.34
2022-10-15T03:49:03.618Z,99764.06
2022-10-15T03:51:31.650Z,99767.88
2022-10-15T03:54:04.718Z,99764.53
2022-10-15T03:56:34.821Z,99758.00
2022-10-15T03:59:17.747Z,99762.34
2022-10-15T04:01:49.968Z,99759.50
2022-10-15T04:04:17.221Z,99769.72
2022-10-15T04:06:47.644Z,99762.34
2022-10-15T04:09:15.951Z,99760.50
2022-10-15T04:11:42.507Z,99763.00
2022-10-15T04:14:09.433Z,99754.47
2022-10-15T04:16:35.888Z,99765.69
2022-10-15T04:19:11.465Z,99756.66
2022-10-15T04:21:39.501Z,99762.69
2022-10-15T04:24:08.091Z,99755.69
2022-10-15T04:26:38.359Z,99757.50
2022-10-15T04:29:05.006Z,99757.84
2022-10-15T04:31:31.883Z,99759.53
2022-10-15T04:33:59.268Z,99757.16
2022-10-15T04:36:26.622Z,99747.59
2022-10-15T04:39:05.546Z,99750.28
2022-10-15T04:41:36.629Z,99751.97
2022-10-15T04:44:23.376Z,99749.47
2022-10-15T04:46:54.678Z,99747.59
2022-10-15T04:49:30.007Z,99745.94
2022-10-15T04:51:56.758Z,99742.41
2022-10-15T04:54:43.507Z,99749.28
2022-10-15T04:57:09.959Z,99750.63
2022-10-15T04:59:37.378Z,99741.91
2022-10-15T05:02:22.465Z,99739.91
2022-10-15T05:04:54.737Z,99754.97
2022-10-15T05:07:21.533Z,99747.94
2022-10-15T05:09:49.505Z,99754.16
2022-10-15T05:12:15.971Z,99752.81
2022-10-15T05:14:42.651Z,99764.72
2022-10-15T05:17:15.836Z,99762.41
2022-10-15T05:19:43.642Z,99761.38
2022-10-15T05:22:16.939Z,99760.41
2022-10-15T05:24:49.791Z,99755.16
2022-10-15T05:27:33.186Z,99752.66
2022-10-15T05:30:00.728Z,99758.38
2022-10-15T05:32:35.552Z,99755.69
2022-10-15T05:35:02.687Z,99757.34
2022-10-15T05:37:46.244Z,99754.66
2022-10-15T05:40:17.030Z,99762.06
2022-10-15T05:42:57.624Z,99763.75
2022-10-15T05:45:24.996Z,99760.88
2022-10-15T05:47:55.974Z,99765.91
2022-10-15T05:50:23.134Z,99758.88
2022-10-15T05:52:50.579Z,99759.38
2022-10-15T05:55:32.375Z,99755.81
2022-10-15T05:58:02.347Z,99763.03
2022-10-15T06:00:29.111Z,99760.88
2022-10-15T06:02:55.602Z,99762.69
2022-10-15T06:05:24.508Z,99758.19
2022-10-15T06:07:50.942Z,99750.34
2022-10-15T06:10:17.803Z,99747.47
2022-10-15T06:12:49.978Z,99768.59
2022-10-15T06:15:17.152Z,99763.03
2022-10-15T06:17:43.593Z,99770.28
2022-10-15T06:20:11.148Z,99769.78
2022-10-15T06:25:09.126Z,99772.78
2022-10-15T06:27:35.610Z,99779.00
2022-10-15T06:30:02.486Z,99779.00
2022-10-15T06:32:28.943Z,99778.81
2022-10-15T06:34:55.520Z,99785.16
2022-10-15T06:37:22.482Z,99794.56
2022-10-15T06:39:50.966Z,99788.19
2022-10-15T06:42:17.556Z,99786.69
2022-10-15T06:44:47.360Z,99799.25
2022-10-15T06:47:16.615Z,99791.19
2022-10-15T06:49:47.124Z,99796.56
2022-10-15T06:52:13.922Z,99794.91
2022-10-15T06:54:40.451Z,99800.06
2022-10-15T06:57:07.676Z,99803.59
2022-10-15T06:59:37.139Z,99805.13
2022-10-15T07:02:07.055Z,99802.97
2022-10-15T07:04:33.516Z,99806.09
2022-10-15T07:06:59.929Z,99804.59
2022-10-15T07:09:27.859Z,99803.59
2022-10-15T07:11:54.280Z,99805.25
2022-10-15T07:14:20.718Z,99804.94
2022-10-15T07:16:47.166Z,99801.88
2022-10-15T07:19:13.611Z,99798.88
2022-10-15T07:21:42.387Z,99802.03
2022-10-15T07:24:08.899Z,99793.94
2022-10-15T07:26:36.124Z,99795.09
2022-10-15T07:29:03.972Z,99785.84
2022-10-15T07:31:31.224Z,99786.81
2022-10-15T07:33:57.707Z,99791.00
2022-10-15T07:36:25.582Z,99804.22
2022-10-15T07:38:52.098Z,99803.66
2022-10-15T07:41:18.757Z,99800.44
2022-10-15T07:43:45.475Z,99796.38
2022-10-15T07:46:12.262Z,99800.25
2022-10-15T07:48:38.710Z,99794.06
2022-10-15T07:51:07.085Z,99809.50
2022-10-15T07:53:33.800Z,99801.25
2022-10-15T07:56:01.948Z,99808.59
2022-10-15T07:58:34.527Z,99811.81
2022-10-15T08:01:11.376Z,99821.72
2022-10-15T08:03:38.217Z,99821.72
2022-10-15T08:06:06.937Z,99822.19
2022-10-15T08:08:34.511Z,99827.41
2022-10-15T08:11:11.755Z,99817.00
2022-10-15T08:13:42.205Z,99820.00
2022-10-15T08:16:10.889Z,99833.25
2022-10-15T08:18:37.899Z,99833.22
2022-10-15T08:21:06.219Z,99833.22
2022-10-15T08:23:32.968Z,99821.75
2022-10-15T08:26:00.613Z,99828.00
2022-10-15T08:28:31.616Z,99823.09
2022-10-15T08:31:02.694Z,99821.72
2022-10-15T08:33:32.114Z,99821.06
2022-10-15T08:35:58.624Z,99832.94
2022-10-15T08:38:25.258Z,99831.91
2022-10-15T08:40:57.367Z,99836.66
2022-10-15T08:43:30.285Z,99842.38
2022-10-15T08:46:02.683Z,99849.25
2022-10-15T08:48:40.987Z,99844.06
2022-10-15T08:51:14.055Z,99836.16
2022-10-15T08:53:49.376Z,99840.00
2022-10-15T08:56:20.710Z,99827.91
2022-10-15T08:58:47.070Z,99836.16
2022-10-15T09:01:23.524Z,99842.06
2022-10-15T09:04:03.237Z,99840.34
2022-10-15T09:06:38.370Z,99846.69
2022-10-15T09:09:45.811Z,99845.31
2022-10-15T09:12:38.816Z,99850.13
2022-10-15T09:15:22.573Z,99849.59
2022-10-15T09:17:54.152Z,99845.41
2022-10-15T09:20:32.680Z,99845.59
2022-10-15T09:22:59.302Z,99851.13
2022-10-15T09:25:32.397Z,99856.59
2022-10-15T09:28:08.834Z,99862.44
2022-10-15T09:30:49.848Z,99867.69
2022-10-15T09:33:31.875Z,99863.16
2022-10-15T09:36:08.787Z,99859.81
2022-10-15T09:39:01.144Z,99863.56
2022-10-15T09:41:45.650Z,99870.63
2022-10-15T09:44:15.194Z,99879.28
2022-10-15T09:46:48.829Z,99881.72
2022-10-15T09:49:24.045Z,99871.31
2022-10-15T09:52:08.762Z,99880.03
2022-10-15T09:54:58.340Z,99864.16
2022-10-15T09:57:26.348Z,99872.44
2022-10-15T09:59:57.243Z,99874.03
2022-10-15T10:02:26.096Z,99882.91
2022-10-15T10:04:53.749Z,99877.56
2022-10-15T10:07:37.764Z,99880.22
2022-10-15T10:10:21.163Z,99882.75
2022-10-15T10:12:47.755Z,99874.41
2022-10-15T10:15:35.636Z,99879.75
2022-10-15T10:18:06.493Z,99883.56
2022-10-15T10:20:34.412Z,99885.66
2022-10-15T10:23:05.061Z,99893.88
2022-10-15T10:25:37.532Z,99891.19
2022-10-15T10:28:06.007Z,99887.72
2022-10-15T10:31:00.168Z,99896.00
2022-10-15T10:33:30.821Z,99889.22
2022-10-15T10:35:58.934Z,99890.84
2022-10-15T10:38:29.532Z,99887.56
2022-10-15T10:41:00.394Z,99887.66
2022-10-15T10:43:29.620Z,99886.63
2022-10-15T10:45:57.769Z,99888.47
2022-10-15T10:48:47.404Z,99888.59
2022-10-15T10:51:18.424Z,99879.75
2022-10-15T10:54:09.164Z,99887.28
2022-10-15T10:56:44.156Z,99886.25
2022-10-15T10:59:16.754Z,99892.31
2022-10-15T11:01:44.136Z,99884.38
2022-10-15T11:04:24.498Z,99893.13
2022-10-15T11:07:05.699Z,99891.91
2022-10-15T11:09:53.758Z,99890.06
2022-10-15T11:12:37.781Z,99895.31
2022-10-15T11:15:35.608Z,99896.47
2022-10-15T11:18:39.592Z,99895.25
2022-10-15T11:21:43.437Z,99888.06
2022-10-15T11:24:19.755Z,99887.22
2022-10-15T11:27:11.443Z,99896.72
2022-10-15T11:30:03.320Z,99885.88
2022-10-15T11:33:06.108Z,99888.84
2022-10-15T11:35:53.369Z,99873.53
2022-10-15T11:38:56.126Z,99889.44
2022-10-15T11:42:00.071Z,99898.69
2022-10-15T11:44:47.489Z,99891.44
2022-10-15T11:47:23.816Z,99899.78
2022-10-15T11:50:18.259Z,99900.81
2022-10-15T11:53:03.477Z,99889.81
2022-10-15T11:55:50.279Z,99891.31
2022-10-15T11:58:46.156Z,99886.34
2022-10-15T12:01:21.447Z,99895.56
2022-10-15T12:03:56.739Z,99900.19
2022-10-15T12:06:30.292Z,99897.25
2022-10-15T12:08:57.991Z,99899.34
2022-10-15T12:11:45.633Z,99899.75
2022-10-15T12:14:27.733Z,99902.66
2022-10-15T12:16:59.983Z,99898.91
2022-10-15T12:19:39.732Z,99891.72
2022-10-15T12:22:12.217Z,99894.69
2022-10-15T12:24:45.045Z,99890.56
2022-10-15T12:27:20.246Z,99889.13
2022-10-15T12:29:59.828Z,99892.47
2022-10-15T12:32:29.290Z,99889.94
2022-10-15T12:34:58.435Z,99895.75
2022-10-15T12:37:27.763Z,99898.47
2022-10-15T12:39:59.956Z,99897.41
2022-10-15T12:42:31.377Z,99901.00
2022-10-15T12:45:00.479Z,99903.28
2022-10-15T12:48:02.066Z,99896.41
2022-10-15T12:50:31.187Z,99900.75
2022-10-15T12:53:00.460Z,99901.97
2022-10-15T12:55:34.680Z,99893.28
2022-10-15T12:58:06.684Z,99895.59
2022-10-15T13:00:39.026Z,99889.22
2022-10-15T13:03:52.244Z,99883.50
2022-10-15T13:06:21.746Z,99879.16
2022-10-15T13:08:48.300Z,99875.22
2022-10-15T13:11:40.844Z,99872.91
2022-10-15T13:14:40.375Z,99869.38
2022-10-15T13:17:16.812Z,99864.78
2022-10-15T13:20:06.154Z,99862.66
2022-10-15T13:22:34.625Z,99867.69
2022-10-15T13:25:01.664Z,99858.09
2022-10-15T13:27:34.353Z,99856.25
2022-10-15T13:30:03.629Z,99855.06
2022-10-15T13:32:33.803Z,99857.56
2022-10-15T13:35:02.700Z,99861.31
2022-10-15T13:37:32.614Z,99857.34
2022-10-15T13:40:01.874Z,99856.53
2022-10-15T13:42:32.827Z,99861.75
2022-10-15T13:45:15.444Z,99862.56
2022-10-15T13:47:47.828Z,99862.78
2022-10-15T13:50:14.242Z,99865.06
2022-10-15T13:52:43.868Z,99868.38
2022-10-15T13:55:17.656Z,99875.50
2022-10-15T14:00:26.957Z,99882.78
2022-10-15T14:03:17.157Z,99877.56
2022-10-15T14:05:45.933Z,99878.41
2022-10-15T14:08:33.370Z,99884.47
2022-10-15T14:11:00.258Z,99889.03
2022-10-15T14:13:27.779Z,99882.56
2022-10-15T14:16:13.234Z,99881.34
2022-10-15T14:18:48.121Z,99887.34
2022-10-15T14:21:20.471Z,99891.75
2022-10-15T14:23:48.499Z,99892.97
2022-10-15T14:26:16.773Z,99889.44
2022-10-15T14:28:49.545Z,99891.94
2022-10-15T14:31:30.409Z,99879.44
2022-10-15T14:33:56.883Z,99885.28
2022-10-15T14:36:26.736Z,99884.44
2022-10-15T14:38:54.855Z,99892.16
2022-10-15T14:41:23.553Z,99897.78
2022-10-15T14:44:12.025Z,99906.13
2022-10-15T14:46:41.628Z,99902.38
2022-10-15T14:49:28.858Z,99901.13
2022-10-15T14:52:03.633Z,99910.09
2022-10-15T14:54:39.725Z,99906.34
2022-10-15T14:57:16.761Z,99907.34
2022-10-15T14:59:43.305Z,99893.81
2022-10-15T15:02:15.756Z,99891.75
2022-10-15T15:04:45.304Z,99892.38
2022-10-15T15:07:20.859Z,99891.31
2022-10-15T15:09:47.987Z,99889.44
2022-10-15T15:12:24.119Z,99894.03
2022-10-15T15:14:53.691Z,99892.38
2022-10-15T15:17:22.563Z,99881.75
2022-10-15T15:19:51.701Z,99898.81
2022-10-15T15:22:28.363Z,99901.75
2022-10-15T15:24:55.687Z,99903.63
2022-10-15T15:27:28.191Z,99905.69
2022-10-15T15:29:55.527Z,99907.16
2022-10-15T15:32:23.815Z,99895.28
2022-10-15T15:34:52.271Z,99908.00
2022-10-15T15:37:23.643Z,99907.19
2022-10-15T15:39:50.645Z,99916.13
2022-10-15T15:42:19.666Z,99919.03
2022-10-15T15:44:46.403Z,99924.69
2022-10-15T15:47:13.295Z,99937.41
2022-10-15T15:49:40.700Z,99934.22
2022-10-15T15:52:10.540Z,99935.09
2022-10-15T15:54:37.010Z,99937.78
2022-10-15T15:57:03.567Z,99938.56
2022-10-15T15:59:30.015Z,99930.34
2022-10-15T16:01:56.611Z,99934.91
2022-10-15T16:04:23.199Z,99938.56
2022-10-15T16:06:49.904Z,99941.22
2022-10-15T16:09:17.895Z,99939.44
2022-10-15T16:11:45.006Z,99941.78
2022-10-15T16:14:11.941Z,99941.78
2022-10-15T16:16:38.399Z,99947.06
2022-10-15T16:19:05.254Z,99949.06
2022-10-15T16:21:32.429Z,99948.78
2022-10-15T16:24:02.590Z,99954.47
2022-10-15T16:26:29.096Z,99954.41
2022-10-15T16:28:55.616Z,99953.41
2022-10-15T16:31:30.286Z,99961.47
2022-10-15T16:33:57.403Z,99968.47
2022-10-15T16:36:24.541Z,99964.06
2022-10-15T16:38:51.398Z,99963.22
2022-10-15T16:41:19.466Z,99965.06
2022-10-15T16:43:47.315Z,99960.50
2022-10-15T16:46:14.709Z,99961.78
2022-10-15T16:48:41.382Z,99974.38
2022-10-15T16:51:11.028Z,99973.13
2022-10-15T16:53:38.422Z,99971.25
2022-10-15T16:56:14.704Z,99970.28
2022-10-15T16:58:41.560Z,99976.97
2022-10-15T17:01:13.109Z,99982.84
2022-10-15T17:03:40.640Z,99983.09
2022-10-15T17:06:09.824Z,99985.63
2022-10-15T17:09:05.554Z,99983.22
2022-10-15T17:11:37.743Z,99986.13
2022-10-15T17:14:07.569Z,99988.31
2022-10-15T17:16:37.745Z,99991.81
2022-10-15T17:19:04.895Z,99996.56
2022-10-15T17:21:31.802Z,100004.78
2022-10-15T17:24:00.935Z,100012.63
2022-10-15T17:26:33.118Z,100018.94
2022-10-15T17:29:00.277Z,100017.00
2022-10-15T17:31:27.810Z,100013.84
2022-10-15T17:33:57.462Z,100014.69
2022-10-15T17:36:25.377Z,100018.88
2022-10-15T17:38:52.591Z,100023.44
2022-10-15T17:41:21.555Z,100039.88
2022-10-15T17:43:49.155Z,100025.03
2022-10-15T17:46:18.876Z,100032.31
2022-10-15T17:48:46.003Z,100031.84
2022-10-15T17:51:15.970Z,100031.97
2022-10-15T17:53:43.594Z,100027.50
2022-10-15T17:56:18.568Z,100033.72
2022-10-15T17:58:45.599Z,100029.28
2022-10-15T18:01:33.226Z,100045.81
2022-10-15T18:04:00.080Z,100045.50
2022-10-15T18:06:28.051Z,100048.00
2022-10-15T18:08:54.898Z,100050.44
2022-10-15T18:11:25.051Z,100044.94
2022-10-15T18:13:51.875Z,100048.72
2022-10-15T18:16:20.153Z,100048.16
2022-10-15T18:18:47.208Z,100039.84
2022-10-15T18:21:16.012Z,100045.81
2022-10-15T18:23:42.833Z,100050.53
2022-10-15T18:26:17.139Z,100050.22
2022-10-15T18:28:47.147Z,100054.13
2022-10-15T18:31:15.373Z,100054.34
2022-10-15T18:33:44.381Z,100057.34
2022-10-15T18:36:18.194Z,100056.38
2022-10-15T18:38:44.914Z,100062.34
2022-10-15T18:41:23.419Z,100069.25
2022-10-15T18:43:57.853Z,100071.19
2022-10-15T18:46:29.492Z,100068.22
2022-10-15T18:48:56.452Z,100078.00
2022-10-15T18:51:26.677Z,100083.09
2022-10-15T18:53:53.397Z,100089.66
2022-10-15T18:56:21.112Z,100081.63
2022-10-15T18:58:47.571Z,100080.88
2022-10-15T19:01:27.050Z,100082.09
2022-10-15T19:03:58.573Z,100090.00
2022-10-15T19:06:31.873Z,100091.50
2022-10-15T19:08:59.408Z,100094.13
2022-10-15T19:11:30.038Z,100086.84
2022-10-15T19:13:58.305Z,100086.38
2022-10-15T19:16:24.782Z,100087.19
2022-10-15T19:18:51.248Z,100090.88
2022-10-15T19:21:18.593Z,100086.44
2022-10-15T19:23:45.062Z,100084.66
2022-10-15T19:26:13.825Z,100093.28
2022-10-15T19:28:40.559Z,100095.78
2022-10-15T19:31:09.980Z,100096.63
2022-10-15T19:33:37.688Z,100102.09
2022-10-15T19:36:04.684Z,100095.97
2022-10-15T19:38:31.183Z,100102.47
2022-10-15T19:41:03.956Z,100097.28
2022-10-15T19:43:30.531Z,100112.09
2022-10-15T19:46:02.900Z,100104.56
2022-10-15T19:48:29.667Z,100102.94
2022-10-15T19:50:56.281Z,100110.28
2022-10-15T19:53:22.714Z,100110.97
2022-10-15T19:55:58.137Z,100118.00
2022-10-15T19:58:24.931Z,100113.44
2022-10-15T20:00:52.502Z,100116.63
2022-10-15T20:03:19.984Z,100123.72
2022-10-15T20:05:46.933Z,100127.00
2022-10-15T20:08:14.315Z,100123.66
2022-10-15T20:10:42.447Z,100125.97
2022-10-15T20:13:09.204Z,100125.50
2022-10-15T20:15:40.004Z,100130.69
2022-10-15T20:18:06.473Z,100141.72
2022-10-15T20:20:38.563Z,100145.13
2022-10-15T20:23:05.383Z,100142.44
2022-10-15T20:25:32.183Z,100153.16
2022-10-15T20:27:58.954Z,100158.19
2022-10-15T20:30:25.422Z,100150.34
2022-10-15T20:32:51.843Z,100158.69
2022-10-15T20:35:19.852Z,100161.56
2022-10-15T20:37:47.056Z,100169.59
2022-10-15T20:40:15.006Z,100168.59
2022-10-15T20:42:42.037Z,100165.97
2022-10-15T20:45:14.467Z,100160.09
2022-10-15T20:47:44.862Z,100160.69
2022-10-15T20:50:14.935Z,100183.50
2022-10-15T20:52:42.264Z,100172.50
2022-10-15T20:55:10.679Z,100174.09
2022-10-15T20:57:38.064Z,100177.38
2022-10-15T21:00:07.172Z,100174.09
2022-10-15T21:02:33.918Z,100168.19
2022-10-15T21:05:00.403Z,100172.78
2022-10-15T21:07:27.090Z,100177.50
2022-10-15T21:09:53.982Z,100188.28
2022-10-15T21:12:21.132Z,100186.41
2022-10-15T21:14:47.613Z,100187.00
2022-10-15T21:17:14.061Z,100197.41
2022-10-15T21:19:40.494Z,100195.00
2022-10-15T21:22:06.915Z,100192.84
2022-10-15T21:24:36.438Z,100201.88
2022-10-15T21:27:02.988Z,100196.66
2022-10-15T21:29:29.463Z,100188.81
2022-10-15T21:31:55.981Z,100197.47
2022-10-15T21:34:27.297Z,100197.00
2022-10-15T21:36:55.210Z,100200.50
2022-10-15T21:39:22.498Z,100191.81
2022-10-15T21:41:49.110Z,100202.63
2022-10-15T21:44:15.642Z,100204.97
2022-10-15T21:46:43.216Z,100198.09
2022-10-15T21:49:10.071Z,100193.56
2022-10-15T21:51:37.654Z,100190.97
2022-10-15T21:54:06.231Z,100194.88
2022-10-15T21:56:33.771Z,100197.22
2022-10-15T21:59:00.320Z,100205.13
2022-10-15T22:01:31.088Z,100202.59
2022-10-15T22:04:03.388Z,100209.69
2022-10-15T22:06:30.327Z,100210.00
2022-10-15T22:08:57.701Z,100214.41
2022-10-15T22:11:28.010Z,100216.44
2022-10-15T22:13:57.228Z,100225.50
2022-10-15T22:16:25.508Z,100215.38
2022-10-15T22:18:52.407Z,100220.09
2022-10-15T22:21:21.660Z,100224.34
2022-10-15T22:23:54.513Z,100224.16
2022-10-15T22:26:23.944Z,100216.63
2022-10-15T22:28:52.969Z,100228.75
2022-10-15T22:31:20.155Z,100229.06
2022-10-15T22:33:47.184Z,100233.28
2022-10-15T22:36:17.452Z,100229.25
2022-10-15T22:38:47.507Z,100225.88
2022-10-15T22:41:15.152Z,100227.41
2022-10-15T22:43:42.084Z,100241.88
2022-10-15T22:46:08.611Z,100241.34
2022-10-15T22:48:37.081Z,100238.19
2022-10-15T22:51:05.666Z,100232.97
2022-10-15T22:53:32.600Z,100233.09
2022-10-15T22:56:05.252Z,100244.72
2022-10-15T22:58:33.422Z,100241.03
2022-10-15T23:01:14.793Z,100233.94
2022-10-15T23:03:43.429Z,100238.66
2022-10-15T23:06:10.838Z,100242.41
2022-10-15T23:08:37.472Z,100227.91
2022-10-15T23:11:15.847Z,100228.94
2022-10-15T23:13:43.391Z,100231.81
2022-10-15T23:16:16.666Z,100226.53
2022-10-15T23:18:44.331Z,100230.44
2022-10-15T23:21:14.722Z,100227.59
2022-10-15T23:23:42.696Z,100226.06
2022-10-15T23:26:15.133Z,100229.78
2022-10-15T23:28:43.280Z,100231.94
2022-10-15T23:31:17.459Z,100240.53
2022-10-15T23:33:44.663Z,100233.16
2022-10-15T23:36:11.208Z,100232.78
2022-10-15T23:38:37.640Z,100243.38
2022-10-15T23:41:06.514Z,100235.00
2022-10-15T23:43:33.656Z,100239.34
2022-10-15T23:46:00.713Z,100252.28
2022-10-15T23:48:28.240Z,100250.78
2022-10-15T23:50:59.290Z,100239.88
2022-10-15T23:53:29.001Z,100239.53
2022-10-15T23:55:55.453Z,100248.13
2022-10-15T23:58:21.957Z,100250.47
